Time;durP1;ratioP1;P1;durP2;ratioP2;P2;SDS_P1;SDS_P2;PMS_P1;PMS_P2;Temp;Humidity;BMP_temperature;BMP_pressure;BME280_temperature;BME280_humidity;BME280_pressure;Samples;Min_cycle;Max_cycle;Signal;HPM_P1;HPM_P2
2023/07/08 00:00:13;;;;;;;;;;;;;;;27.89;37.56;100493.63;5056656;28;1051;-44
2023/07/08 00:02:39;;;;;;;;;;;;;;;27.82;37.43;100482.75;5057019;28;1035;-44
2023/07/08 00:05:05;;;;;;;;;;;;;;;27.90;37.08;100483.63;5056328;28;1287;-46
2023/07/08 00:07:30;;;;;;;;;;;;;;;27.88;37.31;100483.84;5056702;28;1890;-46
2023/07/08 00:09:56;;;;;;;;;;;;;;;27.89;37.24;100488.22;5056327;28;1115;-44
2023/07/08 00:12:21;;;;;;;;;;;;;;;27.82;37.24;100488.16;5057213;28;1218;-47
2023/07/08 00:14:48;;;;;;;;;;;;;;;27.89;36.75;100490.09;5056200;28;1019;-44
2023/07/08 00:17:13;;;;;;;;;;;;;;;27.86;36.87;100492.13;5056398;28;1186;-45
2023/07/08 00:19:39;;;;;;;;;;;;;;;27.98;36.81;100491.59;5056156;28;1086;-44
2023/07/08 00:22:11;;;;;;;;;;;;;;;27.88;36.65;100489.25;5056240;28;1102;-44
2023/07/08 00:24:37;;;;;;;;;;;;;;;27.85;36.94;100481.53;5056603;28;1159;-44
2023/07/08 00:27:02;;;;;;;;;;;;;;;27.80;37.14;100486.66;5055329;28;1914;-44
2023/07/08 00:29:28;;;;;;;;;;;;;;;27.85;37.16;100493.19;5054579;28;1669;-46
2023/07/08 00:31:53;;;;;;;;;;;;;;;27.93;37.02;100494.91;5056664;28;1127;-43
2023/07/08 00:34:19;;;;;;;;;;;;;;;27.87;36.86;100496.53;5055960;28;1103;-45
2023/07/08 00:36:44;;;;;;;;;;;;;;;27.94;36.85;100495.75;5055891;28;1039;-45
2023/07/08 00:39:13;;;;;;;;;;;;;;;27.90;36.38;100499.84;5056386;28;1047;-44
2023/07/08 00:41:40;;;;;;;;;;;;;;;27.91;36.89;100498.84;5056306;28;1079;-44
2023/07/08 00:44:07;;;;;;;;;;;;;;;27.94;36.73;100501.16;5055057;28;1135;-43
2023/07/08 00:46:51;;;;;;;;;;;;;;;27.85;36.86;100501.28;5054845;28;1955;-45
2023/07/08 00:49:23;;;;;;;;;;;;;;;28.01;36.75;100504.72;5056171;28;1092;-46
2023/07/08 00:51:49;;;;;;;;;;;;;;;27.95;36.88;100497.41;5056103;28;1007;-45
2023/07/08 00:54:17;;;;;;;;;;;;;;;28.01;36.08;100495.81;5056482;28;1129;-45
2023/07/08 00:56:44;;;;;;;;;;;;;;;27.92;36.66;100500.50;5054852;28;1056;-44
2023/07/08 00:59:11;;;;;;;;;;;;;;;27.94;37.13;100496.59;5054675;28;882;-45
2023/07/08 01:01:38;;;;;;;;;;;;;;;27.87;36.80;100493.84;5054866;28;1048;-44
2023/07/08 01:04:06;;;;;;;;;;;;;;;27.87;36.64;100487.56;5054981;28;1534;-44
2023/07/08 01:06:32;;;;;;;;;;;;;;;27.98;36.26;100495.16;5054631;28;1902;-44
2023/07/08 01:09:02;;;;;;;;;;;;;;;27.96;37.00;100497.22;5055157;28;1083;-45
2023/07/08 01:11:28;;;;;;;;;;;;;;;27.84;36.89;100490.69;5038087;28;1395;-45
2023/07/08 01:13:54;;;;;;;;;;;;;;;27.96;36.56;100493.69;5064628;28;1041;-45
2023/07/08 01:16:19;;;;;;;;;;;;;;;27.92;36.70;100487.84;5088215;28;1252;-46
2023/07/08 01:18:53;;;;;;;;;;;;;;;27.98;36.34;100488.91;5038306;28;1111;-44
2023/07/08 01:21:37;;;;;;;;;;;;;;;27.84;37.24;100493.38;5054291;28;1096;-44
2023/07/08 01:24:04;;;;;;;;;;;;;;;27.96;37.01;100493.69;5055474;28;926;-45
2023/07/08 01:26:29;;;;;;;;;;;;;;;27.92;36.82;100504.06;5071454;28;1910;-44
2023/07/08 01:28:55;;;;;;;;;;;;;;;27.96;36.52;100502.63;5054666;28;1048;-45
2023/07/08 01:31:21;;;;;;;;;;;;;;;27.95;36.70;100517.19;5054658;28;1111;-44
2023/07/08 01:33:46;;;;;;;;;;;;;;;27.92;37.14;100514.03;5037857;28;1060;-44
2023/07/08 01:36:12;;;;;;;;;;;;;;;27.96;37.10;100515.31;5037657;28;1120;-45
2023/07/08 01:38:37;;;;;;;;;;;;;;;27.88;37.05;100518.97;5039871;28;2281;-45
2023/07/08 01:41:04;;;;;;;;;;;;;;;27.91;36.97;100524.00;5059351;28;1131;-44
2023/07/08 01:43:29;;;;;;;;;;;;;;;27.85;37.08;100517.50;5057615;28;1230;-45
2023/07/08 01:45:55;;;;;;;;;;;;;;;27.85;36.79;100516.66;5057739;28;1079;-44
2023/07/08 01:48:21;;;;;;;;;;;;;;;27.77;36.94;100506.81;5058117;28;1909;-44
2023/07/08 01:50:49;;;;;;;;;;;;;;;27.93;36.66;100507.56;5059369;28;1246;-46
2023/07/08 01:53:16;;;;;;;;;;;;;;;27.91;36.74;100504.25;5059165;28;1047;-46
2023/07/08 01:55:43;;;;;;;;;;;;;;;27.89;36.53;100503.59;5091398;28;1017;-44
2023/07/08 01:58:08;;;;;;;;;;;;;;;27.90;36.73;100498.00;5057694;28;1300;-45
2023/07/08 02:00:34;;;;;;;;;;;;;;;27.83;36.80;100503.34;5057772;28;1131;-45
2023/07/08 02:03:00;;;;;;;;;;;;;;;27.86;36.70;100513.75;5058900;28;1067;-43
2023/07/08 02:05:26;;;;;;;;;;;;;;;27.95;36.45;100511.78;5058302;28;1136;-44
2023/07/08 02:07:51;;;;;;;;;;;;;;;27.82;36.73;100520.59;5058842;28;1910;-45
2023/07/08 02:10:17;;;;;;;;;;;;;;;27.95;36.55;100522.59;5058419;28;1154;-45
2023/07/08 02:12:42;;;;;;;;;;;;;;;27.79;37.00;100515.59;5057094;28;1103;-44
2023/07/08 02:15:09;;;;;;;;;;;;;;;27.89;36.74;100511.72;5057793;28;1168;-44
2023/07/08 02:17:34;;;;;;;;;;;;;;;27.91;36.82;100517.75;5057411;28;1032;-44
2023/07/08 02:19:59;;;;;;;;;;;;;;;27.87;36.64;100514.59;5058632;28;1206;-45
2023/07/08 02:22:25;;;;;;;;;;;;;;;27.87;36.56;100499.25;5058330;28;1102;-45
2023/07/08 02:24:50;;;;;;;;;;;;;;;28.03;36.32;100505.38;5057464;28;1318;-44
2023/07/08 02:27:16;;;;;;;;;;;;;;;27.86;36.02;100497.53;5057005;28;1969;-45
2023/07/08 02:29:42;;;;;;;;;;;;;;;27.83;36.45;100495.22;5057398;28;1228;-45
2023/07/08 02:32:09;;;;;;;;;;;;;;;27.84;36.70;100487.97;5057601;28;1207;-44
2023/07/08 02:34:35;;;;;;;;;;;;;;;27.72;36.74;100483.09;5057870;28;1213;-44
2023/07/08 02:37:00;;;;;;;;;;;;;;;27.85;36.38;100476.13;5058605;28;1143;-43
2023/07/08 02:39:26;;;;;;;;;;;;;;;27.81;36.24;100480.25;5058588;28;1183;-44
2023/07/08 02:41:51;;;;;;;;;;;;;;;27.71;36.49;100467.88;5057000;28;1349;-44
2023/07/08 02:44:17;;;;;;;;;;;;;;;27.85;36.51;100468.84;5058069;28;1114;-45
2023/07/08 02:46:42;;;;;;;;;;;;;;;27.77;36.53;100474.41;5056860;28;1910;-46
2023/07/08 02:49:08;;;;;;;;;;;;;;;27.86;36.54;100485.91;5057563;28;1111;-45
2023/07/08 02:51:33;;;;;;;;;;;;;;;27.83;36.32;100481.72;5056900;28;1204;-45
2023/07/08 02:53:59;;;;;;;;;;;;;;;27.73;36.65;100468.53;5056948;28;1082;-45
2023/07/08 02:56:26;;;;;;;;;;;;;;;27.63;36.57;100486.91;5057829;28;1074;-44
2023/07/08 02:58:52;;;;;;;;;;;;;;;27.70;37.04;100484.28;5057454;28;1123;-45
2023/07/08 03:01:17;;;;;;;;;;;;;;;27.68;36.81;100481.78;5058360;28;1103;-43
2023/07/08 03:03:44;;;;;;;;;;;;;;;27.84;35.98;100483.38;5057535;28;1118;-43
2023/07/08 03:06:10;;;;;;;;;;;;;;;27.80;36.12;100471.31;5056645;28;1340;-44
2023/07/08 03:08:35;;;;;;;;;;;;;;;27.89;36.13;100477.41;5056586;28;1913;-44
2023/07/08 03:11:02;;;;;;;;;;;;;;;27.70;36.53;100478.91;5057426;28;1098;-46
2023/07/08 03:13:27;;;;;;;;;;;;;;;27.78;36.67;100472.53;5058112;28;1060;-46
2023/07/08 03:15:57;;;;;;;;;;;;;;;27.73;36.81;100476.66;5057624;28;1023;-42
2023/07/08 03:18:24;;;;;;;;;;;;;;;27.29;37.44;100478.47;5056012;28;1068;-43
2023/07/08 03:20:55;;;;;;;;;;;;;;;26.92;41.37;100475.72;5056518;28;1234;-43
2023/07/08 03:23:22;;;;;;;;;;;;;;;26.29;43.32;100469.66;5066467;28;1415;-43
2023/07/08 03:25:48;;;;;;;;;;;;;;;26.35;43.73;100451.09;5036884;28;1428;-43
2023/07/08 03:28:16;;;;;;;;;;;;;;;26.25;43.46;100440.53;5069327;28;1910;-43
2023/07/08 03:30:42;;;;;;;;;;;;;;;26.39;43.92;100445.13;5076023;28;1252;-42
2023/07/08 03:33:08;;;;;;;;;;;;;;;26.06;45.15;100442.75;5057388;28;1046;-45
2023/07/08 03:35:34;;;;;;;;;;;;;;;26.61;44.34;100476.78;5056862;28;1032;-46
2023/07/08 03:37:59;;;;;;;;;;;;;;;27.27;43.32;100461.63;5057477;28;1059;-37
2023/07/08 03:40:25;;;;;;;;;;;;;;;27.50;42.97;100487.63;5057089;28;1206;-36
2023/07/08 03:42:51;;;;;;;;;;;;;;;27.23;43.41;100487.31;5057487;28;1031;-35
2023/07/08 03:45:16;;;;;;;;;;;;;;;27.21;42.87;100468.59;5055749;28;1079;-37
2023/07/08 03:47:42;;;;;;;;;;;;;;;27.50;42.68;100460.59;5072236;28;1906;-40
2023/07/08 03:50:15;;;;;;;;;;;;;;;27.42;41.82;100456.16;5056060;28;1351;-37
2023/07/08 03:52:41;;;;;;;;;;;;;;;27.33;41.67;100460.84;5056104;28;1068;-38
2023/07/08 03:55:09;;;;;;;;;;;;;;;27.24;42.08;100460.13;5052711;28;1387;-40
2023/07/08 03:57:35;;;;;;;;;;;;;;;26.87;43.00;100467.34;5039242;28;1471;-40
2023/07/08 04:00:01;;;;;;;;;;;;;;;27.41;41.47;100472.56;5055113;28;1051;-37
2023/07/08 04:02:27;;;;;;;;;;;;;;;27.57;39.78;100475.03;5086826;28;1476;-36
2023/07/08 04:04:53;;;;;;;;;;;;;;;27.36;39.64;100479.38;5054550;28;1321;-38
2023/07/08 04:07:18;;;;;;;;;;;;;;;27.02;40.69;100486.25;5052738;28;1942;-37
2023/07/08 04:09:49;;;;;;;;;;;;;;;24.32;47.63;100486.53;5056429;28;1107;-45
2023/07/08 04:12:15;;;;;;;;;;;;;;;24.15;52.21;100479.50;5047421;28;1047;-46
2023/07/08 04:14:42;;;;;;;;;;;;;;;25.43;48.50;100497.59;5057032;28;1051;-43
2023/07/08 04:17:08;;;;;;;;;;;;;;;25.77;47.57;100495.56;5056582;28;1086;-40
2023/07/08 04:19:33;;;;;;;;;;;;;;;25.94;47.20;100514.28;5056531;28;1086;-34
2023/07/08 04:22:00;;;;;;;;;;;;;;;25.64;47.69;100505.06;5056709;28;1191;-40
2023/07/08 04:24:25;;;;;;;;;;;;;;;25.76;47.77;100512.72;5056070;28;1178;-44
2023/07/08 04:26:52;;;;;;;;;;;;;;;25.38;48.82;100506.22;5056213;28;1898;-42
2023/07/08 04:29:18;;;;;;;;;;;;;;;26.26;46.56;100515.84;5055227;28;1107;-46
2023/07/08 04:31:44;;;;;;;;;;;;;;;25.92;46.98;100499.13;5055962;28;987;-39
2023/07/08 04:34:09;;;;;;;;;;;;;;;25.37;45.62;100499.16;5056386;28;1123;-42
2023/07/08 04:36:35;;;;;;;;;;;;;;;25.01;47.56;100489.75;5055300;28;1538;-42
2023/07/08 04:39:04;;;;;;;;;;;;;;;26.55;44.12;100491.84;5050413;28;1622;-40
2023/07/08 04:41:30;;;;;;;;;;;;;;;26.26;44.82;100496.13;5056613;28;1032;-40
2023/07/08 04:43:57;;;;;;;;;;;;;;;26.56;44.90;100493.50;5056574;28;1155;-41
2023/07/08 04:46:42;;;;;;;;;;;;;;;23.89;49.06;100485.91;5055903;28;1958;-40
2023/07/08 04:49:11;;;;;;;;;;;;;;;25.72;46.29;100497.94;5055447;28;1239;-42
2023/07/08 04:51:36;;;;;;;;;;;;;;;26.59;44.26;100476.13;5056395;28;1127;-40
2023/07/08 04:54:02;;;;;;;;;;;;;;;26.80;43.50;100494.25;5056218;28;1127;-39
2023/07/08 04:56:44;;;;;;;;;;;;;;;26.64;44.27;100468.31;5071538;28;1518;-38
2023/07/08 04:59:10;;;;;;;;;;;;;;;26.80;42.88;100475.38;5055942;28;1064;-37
2023/07/08 05:01:36;;;;;;;;;;;;;;;26.99;42.57;100483.91;5054500;28;1314;-37
2023/07/08 05:04:01;;;;;;;;;;;;;;;26.62;43.99;100473.91;5056123;28;1170;-39
2023/07/08 05:06:28;;;;;;;;;;;;;;;26.94;42.64;100476.38;5056078;28;1976;-37
2023/07/08 05:08:54;;;;;;;;;;;;;;;25.01;45.71;100470.06;5055539;28;1067;-37
2023/07/08 05:11:19;;;;;;;;;;;;;;;24.96;47.17;100462.50;5056188;28;1186;-34
2023/07/08 05:13:45;;;;;;;;;;;;;;;26.45;42.95;100456.22;5058544;28;1064;-41
2023/07/08 05:16:10;;;;;;;;;;;;;;;26.70;43.26;100474.81;5059815;28;1178;-40
2023/07/08 05:18:36;;;;;;;;;;;;;;;26.99;41.02;100467.72;5060004;28;1205;-40
2023/07/08 05:21:03;;;;;;;;;;;;;;;26.85;41.52;100466.69;5059994;28;1107;-40
2023/07/08 05:23:28;;;;;;;;;;;;;;;26.59;41.90;100476.13;5065788;28;1101;-41
2023/07/08 05:25:54;;;;;;;;;;;;;;;26.90;41.48;100462.41;5059936;28;1127;-41
2023/07/08 05:28:21;;;;;;;;;;;;;;;26.70;41.45;100477.50;5059655;28;1910;-39
2023/07/08 05:30:46;;;;;;;;;;;;;;;26.60;42.26;100475.94;5059717;28;1135;-41
2023/07/08 05:33:12;;;;;;;;;;;;;;;26.79;41.35;100471.00;5059764;28;1162;-40
2023/07/08 05:35:37;;;;;;;;;;;;;;;26.68;40.98;100469.59;5059729;28;1163;-42
2023/07/08 05:38:03;;;;;;;;;;;;;;;26.87;40.08;100478.16;5059614;28;1023;-37
2023/07/08 05:40:28;;;;;;;;;;;;;;;26.92;41.25;100481.13;5059224;28;1178;-40
2023/07/08 05:42:54;;;;;;;;;;;;;;;26.71;41.24;100480.00;5052790;28;1329;-41
2023/07/08 05:45:19;;;;;;;;;;;;;;;26.94;40.75;100484.47;5049123;28;1265;-41
2023/07/08 05:47:45;;;;;;;;;;;;;;;26.81;41.55;100489.69;5040043;28;2054;-40
2023/07/08 05:50:10;;;;;;;;;;;;;;;27.12;40.33;100480.56;5059162;28;1091;-42
2023/07/08 05:52:36;;;;;;;;;;;;;;;27.30;39.79;100495.50;5059510;28;1003;-40
2023/07/08 05:55:01;;;;;;;;;;;;;;;27.08;40.26;100495.44;5058926;28;1086;-40
2023/07/08 05:57:27;;;;;;;;;;;;;;;27.27;39.61;100488.63;5059054;28;1171;-35
2023/07/08 05:59:53;;;;;;;;;;;;;;;27.04;40.47;100473.41;5058939;28;1059;-43
2023/07/08 06:02:21;;;;;;;;;;;;;;;27.17;40.64;100475.44;5057729;28;1282;-43
2023/07/08 06:04:47;;;;;;;;;;;;;;;27.34;40.34;100481.41;5059239;28;1292;-43
2023/07/08 06:07:12;;;;;;;;;;;;;;;27.43;39.50;100484.84;5058781;28;1914;-44
2023/07/08 06:09:38;;;;;;;;;;;;;;;24.92;46.00;100486.22;5058647;28;1052;-41
2023/07/08 06:12:03;;;;;;;;;;;;;;;24.21;51.03;100478.84;5056259;28;1126;-41
2023/07/08 06:14:29;;;;;;;;;;;;;;;26.29;40.40;100483.13;5058794;28;997;-37
2023/07/08 06:16:55;;;;;;;;;;;;;;;24.68;49.57;100477.22;5059078;28;1194;-40
2023/07/08 06:19:20;;;;;;;;;;;;;;;26.58;40.82;100475.28;5058802;28;1094;-40
2023/07/08 06:21:46;;;;;;;;;;;;;;;27.05;41.13;100487.72;5058374;28;1159;-35
2023/07/08 06:24:11;;;;;;;;;;;;;;;27.20;39.23;100456.16;5058928;28;1206;-41
2023/07/08 06:26:37;;;;;;;;;;;;;;;24.79;48.42;100467.13;5056577;28;1971;-40
2023/07/08 06:29:02;;;;;;;;;;;;;;;26.59;40.23;100473.44;5054013;28;865;-36
2023/07/08 06:31:28;;;;;;;;;;;;;;;24.90;46.85;100466.75;5054620;28;1100;-39
2023/07/08 06:33:53;;;;;;;;;;;;;;;26.63;41.09;100459.38;5047247;28;1148;-39
2023/07/08 06:36:19;;;;;;;;;;;;;;;27.02;40.98;100460.13;5054733;28;1345;-37
2023/07/08 06:38:45;;;;;;;;;;;;;;;24.79;46.46;100459.88;5058850;28;1384;-35
2023/07/08 06:41:10;;;;;;;;;;;;;;;26.25;41.89;100444.09;5058349;28;1423;-38
2023/07/08 06:43:35;;;;;;;;;;;;;;;24.30;48.16;100447.41;5058630;28;1102;-38
2023/07/08 06:46:13;;;;;;;;;;;;;;;26.50;41.89;100462.72;5058189;28;1139;-47
2023/07/08 06:48:38;;;;;;;;;;;;;;;24.76;48.59;100470.13;5057965;28;1910;-38
2023/07/08 06:51:04;;;;;;;;;;;;;;;26.56;40.34;100455.75;5058254;28;1094;-38
2023/07/08 06:53:29;;;;;;;;;;;;;;;24.98;48.40;100467.72;5057957;28;1052;-41
2023/07/08 06:55:55;;;;;;;;;;;;;;;26.69;40.89;100467.75;5055209;28;1574;-40
2023/07/08 06:58:21;;;;;;;;;;;;;;;25.47;44.02;100469.31;5047682;28;1488;-39
2023/07/08 07:00:47;;;;;;;;;;;;;;;26.04;42.71;100477.16;5046635;28;1249;-38
2023/07/08 07:03:13;;;;;;;;;;;;;;;24.62;45.72;100477.94;5048266;28;1590;-37
2023/07/08 07:05:38;;;;;;;;;;;;;;;25.92;43.28;100471.34;5041940;28;1556;-38
2023/07/08 07:08:04;;;;;;;;;;;;;;;24.69;45.64;100480.78;5044264;28;1918;-41
2023/07/08 07:10:30;;;;;;;;;;;;;;;25.79;43.18;100488.97;5051147;28;1036;-39
2023/07/08 07:12:56;;;;;;;;;;;;;;;26.13;41.44;100484.13;5050430;28;1333;-39
2023/07/08 07:15:22;;;;;;;;;;;;;;;25.18;44.95;100495.03;5057970;28;1051;-39
2023/07/08 07:17:48;;;;;;;;;;;;;;;26.82;41.62;100503.00;5057541;28;1198;-37
2023/07/08 07:20:13;;;;;;;;;;;;;;;26.24;42.15;100492.81;5045737;28;1465;-37
2023/07/08 07:22:39;;;;;;;;;;;;;;;23.92;52.41;100491.75;5047372;28;1009;-38
2023/07/08 07:25:04;;;;;;;;;;;;;;;26.17;43.52;100498.09;5082879;28;996;-36
2023/07/08 07:27:30;;;;;;;;;;;;;;;24.13;50.00;100500.31;5054453;28;1914;-36
2023/07/08 07:29:55;;;;;;;;;;;;;;;25.78;43.75;100492.69;5044921;28;1151;-38
2023/07/08 07:32:22;;;;;;;;;;;;;;;23.30;50.12;100506.41;5054203;28;872;-36
2023/07/08 07:34:48;;;;;;;;;;;;;;;24.90;45.27;100490.09;5056078;28;1004;-34
2023/07/08 07:37:14;;;;;;;;;;;;;;;24.72;45.93;100509.16;5056580;28;1098;-40
2023/07/08 07:39:40;;;;;;;;;;;;;;;24.01;51.81;100514.09;5057686;28;1198;-38
2023/07/08 07:42:05;;;;;;;;;;;;;;;26.04;43.95;100510.31;5056199;28;1083;-40
2023/07/08 07:44:31;;;;;;;;;;;;;;;23.39;50.00;100531.44;5042572;28;1222;-37
2023/07/08 07:46:56;;;;;;;;;;;;;;;24.67;48.12;100525.81;5053422;28;1906;-38
2023/07/08 07:49:22;;;;;;;;;;;;;;;24.19;46.64;100526.56;5046665;28;1436;-37
2023/07/08 07:51:48;;;;;;;;;;;;;;;24.16;49.00;100533.09;5048121;28;1179;-40
2023/07/08 07:54:14;;;;;;;;;;;;;;;26.23;43.35;100518.06;5049666;28;1398;-38
2023/07/08 07:56:43;;;;;;;;;;;;;;;24.68;45.31;100525.66;5050635;28;1281;-41
2023/07/08 07:59:09;;;;;;;;;;;;;;;23.82;49.16;100507.22;5054202;28;1143;-41
2023/07/08 08:01:36;;;;;;;;;;;;;;;25.87;42.87;100520.41;5057460;28;1250;-41
2023/07/08 08:04:01;;;;;;;;;;;;;;;24.43;45.69;100509.56;5056309;28;1305;-43
2023/07/08 08:06:30;;;;;;;;;;;;;;;24.09;46.65;100515.94;5047378;28;1963;-41
2023/07/08 08:09:01;;;;;;;;;;;;;;;24.90;45.52;100509.81;5044885;28;1281;-39
2023/07/08 08:11:48;;;;;;;;;;;;;;;25.33;43.02;100497.81;5056397;28;940;-38
2023/07/08 08:14:20;;;;;;;;;;;;;;;22.95;50.63;100512.66;5055213;28;1246;-37
2023/07/08 08:16:45;;;;;;;;;;;;;;;25.60;43.22;100505.56;5047634;28;1410;-37
2023/07/08 08:19:11;;;;;;;;;;;;;;;24.39;46.10;100507.38;5052435;28;901;-36
2023/07/08 08:21:36;;;;;;;;;;;;;;;24.28;49.35;100509.41;5047953;28;1381;-37
2023/07/08 08:24:02;;;;;;;;;;;;;;;26.29;41.62;100503.88;5049303;28;1274;-41
2023/07/08 08:26:28;;;;;;;;;;;;;;;23.99;47.21;100513.41;5048719;28;1678;-39
2023/07/08 08:28:54;;;;;;;;;;;;;;;24.59;48.03;100518.59;5047764;28;1646;-38
2023/07/08 08:31:19;;;;;;;;;;;;;;;26.16;42.55;100520.66;5049962;28;1352;-35
2023/07/08 08:33:45;;;;;;;;;;;;;;;22.48;51.06;100512.03;5054408;28;1381;-37
2023/07/08 08:36:11;;;;;;;;;;;;;;;24.06;48.83;100524.31;5045463;28;1681;-39
2023/07/08 08:38:36;;;;;;;;;;;;;;;25.85;43.05;100541.31;5047207;28;1397;-39
2023/07/08 08:41:09;;;;;;;;;;;;;;;22.30;51.97;100517.44;5044694;28;1096;-39
2023/07/08 08:43:35;;;;;;;;;;;;;;;24.21;48.33;100529.91;5063386;28;1369;-36
2023/07/08 08:46:19;;;;;;;;;;;;;;;24.06;46.42;100535.94;5067581;28;1305;-40
2023/07/08 08:48:51;;;;;;;;;;;;;;;22.15;55.22;100551.97;5039045;28;1906;-36
2023/07/08 08:51:16;;;;;;;;;;;;;;;24.94;46.31;100545.28;5067923;28;1360;-38
2023/07/08 08:53:42;;;;;;;;;;;;;;;22.80;51.05;100552.63;5060691;28;1174;-39
2023/07/08 08:56:13;;;;;;;;;;;;;;;22.82;54.95;100550.63;5052959;28;1151;-36
2023/07/08 08:58:47;;;;;;;;;;;;;;;25.66;45.16;100551.53;5040678;28;1138;-39
2023/07/08 09:01:13;;;;;;;;;;;;;;;22.38;52.34;100557.69;5037067;28;1408;-36
2023/07/08 09:03:50;;;;;;;;;;;;;;;23.97;49.65;100566.50;5041509;28;1392;-37
2023/07/08 09:06:24;;;;;;;;;;;;;;;23.72;47.89;100578.00;5056149;28;1282;-35
2023/07/08 09:08:50;;;;;;;;;;;;;;;22.03;55.24;100570.09;5038118;28;1907;-36
2023/07/08 09:11:19;;;;;;;;;;;;;;;24.63;47.47;100556.75;5051672;28;1341;-37
2023/07/08 09:13:45;;;;;;;;;;;;;;;22.78;51.36;100580.59;5045856;28;1337;-38
2023/07/08 09:16:34;;;;;;;;;;;;;;;22.08;57.78;100589.25;5062137;28;1066;-37
2023/07/08 09:19:03;;;;;;;;;;;;;;;25.27;45.12;100584.69;5040943;28;1345;-37
2023/07/08 09:21:35;;;;;;;;;;;;;;;22.31;52.40;100582.56;5054996;28;1062;-36
2023/07/08 09:24:01;;;;;;;;;;;;;;;23.30;52.78;100586.91;5071464;28;1051;-37
2023/07/08 09:26:27;;;;;;;;;;;;;;;25.46;44.55;100586.09;5070814;28;1067;-37
2023/07/08 09:28:53;;;;;;;;;;;;;;;22.24;52.57;100580.50;5054597;28;1961;-38
2023/07/08 09:31:22;;;;;;;;;;;;;;;23.95;49.92;100593.53;5055185;28;1198;-36
2023/07/08 09:33:50;;;;;;;;;;;;;;;23.60;48.47;100590.94;5047982;28;1318;-40
2023/07/08 09:36:21;;;;;;;;;;;;;;;21.99;54.83;100592.81;5045286;28;1467;-35
2023/07/08 09:38:47;;;;;;;;;;;;;;;24.75;47.39;100584.97;5063525;28;1058;-38
2023/07/08 09:41:12;;;;;;;;;;;;;;;23.35;49.21;100601.53;5054864;28;1023;-37
2023/07/08 09:43:38;;;;;;;;;;;;;;;22.67;55.58;100584.38;5043740;28;1607;-37
2023/07/08 09:46:03;;;;;;;;;;;;;;;25.34;44.72;100584.84;5049082;28;1647;-36
2023/07/08 09:48:35;;;;;;;;;;;;;;;22.57;51.47;100585.28;5054664;28;1910;-36
2023/07/08 09:51:00;;;;;;;;;;;;;;;24.33;48.27;100597.59;5051694;28;1216;-37
2023/07/08 09:53:26;;;;;;;;;;;;;;;23.48;48.66;100592.22;5055617;28;1067;-39
2023/07/08 09:55:52;;;;;;;;;;;;;;;22.14;55.47;100593.13;5049272;28;2141;-36
2023/07/08 09:58:25;;;;;;;;;;;;;;;24.66;47.13;100570.69;5055840;28;1138;-36
2023/07/08 10:00:52;;;;;;;;;;;;;;;22.57;51.67;100584.47;5046778;28;1202;-40
2023/07/08 10:03:20;;;;;;;;;;;;;;;22.83;54.60;100587.19;5073852;28;1094;-35
2023/07/08 10:05:46;;;;;;;;;;;;;;;25.46;45.42;100588.78;5058948;28;1502;-37
2023/07/08 10:08:16;;;;;;;;;;;;;;;22.10;53.08;100591.78;5058907;28;1918;-36
2023/07/08 10:10:42;;;;;;;;;;;;;;;23.48;51.78;100592.22;5065964;28;953;-36
2023/07/08 10:13:24;;;;;;;;;;;;;;;24.14;46.88;100596.06;5074557;28;1118;-36
2023/07/08 10:15:51;;;;;;;;;;;;;;;22.56;51.41;100590.78;5071997;28;1056;-35
2023/07/08 10:18:17;;;;;;;;;;;;;;;24.81;45.60;100580.75;5044052;28;1174;-36
2023/07/08 10:21:06;;;;;;;;;;;;;;;24.18;45.25;100576.78;5064437;28;1404;-36
2023/07/08 10:23:55;;;;;;;;;;;;;;;24.17;47.01;100593.91;5055924;28;1421;-36
2023/07/08 10:26:23;;;;;;;;;;;;;;;25.92;41.27;100577.28;5052580;28;1218;-37
2023/07/08 10:28:53;;;;;;;;;;;;;;;23.56;46.39;100589.56;5079842;28;1905;-35
2023/07/08 10:31:27;;;;;;;;;;;;;;;23.26;50.32;100581.03;5084389;28;1340;-38
2023/07/08 10:33:53;;;;;;;;;;;;;;;25.47;42.48;100590.50;5058652;28;1147;-40
2023/07/08 10:36:21;;;;;;;;;;;;;;;23.69;46.64;100594.47;5058536;28;1170;-36
2023/07/08 10:38:50;;;;;;;;;;;;;;;23.67;49.67;100585.72;5071213;28;1102;-37
2023/07/08 10:41:22;;;;;;;;;;;;;;;25.35;42.98;100586.50;5057583;28;921;-37
2023/07/08 10:43:58;;;;;;;;;;;;;;;23.31;47.48;100585.91;5073894;28;1031;-37
2023/07/08 10:46:44;;;;;;;;;;;;;;;24.85;44.24;100594.69;5073501;28;1047;-36
2023/07/08 10:49:28;;;;;;;;;;;;;;;23.95;44.93;100590.84;5057716;28;1427;-37
2023/07/08 10:51:57;;;;;;;;;;;;;;;23.83;47.78;100592.16;5057901;28;1049;-38
2023/07/08 10:54:36;;;;;;;;;;;;;;;25.50;41.93;100587.44;5058378;28;1139;-38
2023/07/08 10:57:10;;;;;;;;;;;;;;;23.04;47.55;100591.31;5073429;28;1143;-37
2023/07/08 10:59:56;;;;;;;;;;;;;;;24.78;44.21;100591.84;5057903;28;1062;-38
2023/07/08 11:02:41;;;;;;;;;;;;;;;23.23;47.09;100589.41;5053794;28;1478;-38
2023/07/08 11:05:15;;;;;;;;;;;;;;;23.66;49.22;100602.84;5057530;28;1031;-35
2023/07/08 11:07:42;;;;;;;;;;;;;;;25.24;42.72;100591.25;5057730;28;1969;-37
2023/07/08 11:10:13;;;;;;;;;;;;;;;22.98;49.28;100594.63;5072599;28;1051;-37
2023/07/08 11:12:40;;;;;;;;;;;;;;;25.26;42.13;100599.16;5073220;28;1142;-35
2023/07/08 11:15:19;;;;;;;;;;;;;;;23.48;46.55;100590.38;5057267;28;942;-35
2023/07/08 11:17:48;;;;;;;;;;;;;;;24.42;45.50;100598.47;5057036;28;1035;-39
2023/07/08 11:20:15;;;;;;;;;;;;;;;25.67;42.24;100588.22;5073264;28;1230;-37
2023/07/08 11:22:44;;;;;;;;;;;;;;;23.59;46.42;100601.81;5072971;28;1027;-37
2023/07/08 11:25:14;;;;;;;;;;;;;;;24.75;44.73;100592.19;5073394;28;1059;-40
2023/07/08 11:27:40;;;;;;;;;;;;;;;24.59;42.88;100607.34;5072314;28;1985;-37
2023/07/08 11:30:09;;;;;;;;;;;;;;;23.80;48.52;100597.84;5057493;28;1126;-40
2023/07/08 11:32:34;;;;;;;;;;;;;;;25.74;41.47;100606.38;5057480;28;1126;-42
2023/07/08 11:35:00;;;;;;;;;;;;;;;22.94;47.33;100601.34;5072936;28;1230;-37
2023/07/08 11:37:26;;;;;;;;;;;;;;;24.59;44.49;100601.97;5072515;28;1095;-40
2023/07/08 11:39:57;;;;;;;;;;;;;;;24.67;42.67;100596.56;5072377;28;865;-38
2023/07/08 11:42:23;;;;;;;;;;;;;;;23.82;47.36;100585.94;5056856;28;1054;-38
2023/07/08 11:44:51;;;;;;;;;;;;;;;25.73;41.26;100591.22;5057052;28;1133;-36
2023/07/08 11:47:37;;;;;;;;;;;;;;;23.85;44.98;100579.41;5056748;28;1902;-36
2023/07/08 11:50:03;;;;;;;;;;;;;;;24.87;43.37;100571.16;5057134;28;1180;-35
2023/07/08 11:52:28;;;;;;;;;;;;;;;25.82;40.46;100562.38;5072337;28;873;-37
2023/07/08 11:55:00;;;;;;;;;;;;;;;24.06;47.02;100564.63;5072138;28;1183;-37
2023/07/08 11:57:31;;;;;;;;;;;;;;;25.84;40.44;100581.91;5064092;28;1532;-35
2023/07/08 12:00:26;;;;;;;;;;;;;;;23.47;45.75;100586.00;5053065;28;1368;-37
2023/07/08 12:02:54;;;;;;;;;;;;;;;25.42;40.79;100568.63;5051821;28;1250;-34
2023/07/08 12:05:30;;;;;;;;;;;;;;;24.17;43.66;100563.50;5056760;28;1201;-36
2023/07/08 12:07:58;;;;;;;;;;;;;;;24.31;45.92;100553.91;5052270;28;1902;-36
2023/07/08 12:10:23;;;;;;;;;;;;;;;26.05;40.20;100567.75;5041642;28;1237;-41
2023/07/08 12:12:50;;;;;;;;;;;;;;;23.73;45.61;100590.47;5056700;28;1083;-42
2023/07/08 12:15:24;;;;;;;;;;;;;;;24.55;44.71;100573.75;5056104;28;1165;-40
2023/07/08 12:17:50;;;;;;;;;;;;;;;25.15;40.95;100568.91;5053983;28;1178;-48
2023/07/08 12:20:17;;;;;;;;;;;;;;;23.70;47.36;100584.56;5056088;28;1191;-46
2023/07/08 12:22:42;;;;;;;;;;;;;;;25.77;40.56;100574.53;5045231;28;1321;-46
2023/07/08 12:25:11;;;;;;;;;;;;;;;24.56;42.75;100586.16;5055052;28;885;-46
2023/07/08 12:27:36;;;;;;;;;;;;;;;24.03;45.90;100575.72;5071278;28;1979;-54
2023/07/08 12:30:02;;;;;;;;;;;;;;;25.89;39.99;100585.72;5042291;28;1098;-46
2023/07/08 12:32:28;;;;;;;;;;;;;;;24.69;42.25;100550.69;5056163;28;1125;-46
2023/07/08 12:34:54;;;;;;;;;;;;;;;24.16;43.42;100588.66;5055775;28;1011;-47
2023/07/08 12:37:19;;;;;;;;;;;;;;;23.82;46.57;100583.22;5055909;28;1087;-45
2023/07/08 12:39:53;;;;;;;;;;;;;;;25.47;40.28;100576.19;5055532;28;993;-46
2023/07/08 12:42:18;;;;;;;;;;;;;;;24.21;42.51;100579.13;5071606;28;1079;-43
2023/07/08 12:44:44;;;;;;;;;;;;;;;23.73;46.21;100574.34;5055979;28;1050;-45
2023/07/08 12:47:09;;;;;;;;;;;;;;;25.85;39.05;100580.88;5055796;28;1930;-46
2023/07/08 12:49:35;;;;;;;;;;;;;;;24.90;40.55;100558.25;5056035;28;904;-46